Time;durP1;ratioP1;P1;durP2;ratioP2;P2;SDS_P1;SDS_P2;PMS_P1;PMS_P2;Temp;Humidity;BMP_temperature;BMP_pressure;BME280_temperature;BME280_humidity;BME280_pressure;Samples;Min_cycle;Max_cycle;Signal;HPM_P1;HPM_P2
2022/11/22 00:02:01;;;;;;;4.30;1.00;;;6.80;80.70;;;;;;5035067;28;20029;-75
2022/11/22 00:04:27;;;;;;;1.42;1.00;;;6.80;80.50;;;;;;5034239;28;20493;-75
2022/11/22 00:06:52;;;;;;;1.38;1.00;;;6.90;80.50;;;;;;5034940;28;20052;-75
2022/11/22 00:09:18;;;;;;;6.07;1.15;;;6.90;80.10;;;;;;5034140;28;20048;-76
2022/11/22 00:11:43;;;;;;;1.30;0.80;;;6.90;80.40;;;;;;5034784;28;20025;-75
2022/11/22 00:14:09;;;;;;;1.95;1.00;;;6.90;80.70;;;;;;5034385;28;20029;-75
2022/11/22 00:16:34;;;;;;;2.10;1.10;;;6.90;80.80;;;;;;5051181;28;20037;-75
2022/11/22 00:19:00;;;;;;;3.95;0.88;;;6.90;80.90;;;;;;5034507;28;20021;-75
2022/11/22 00:21:25;;;;;;;2.35;0.93;;;6.90;80.70;;;;;;5034570;28;20547;-76
2022/11/22 00:23:56;;;;;;;2.25;1.02;;;6.90;80.90;;;;;;5034531;28;20057;-76
2022/11/22 00:26:22;;;;;;;3.28;1.20;;;6.90;80.70;;;;;;5034499;28;20018;-75
2022/11/22 00:28:48;;;;;;;3.88;0.90;;;6.90;80.70;;;;;;5034359;28;20025;-75
2022/11/22 00:31:14;;;;;;;3.40;0.90;;;7.00;80.50;;;;;;5034348;28;20031;-76
2022/11/22 00:33:39;;;;;;;2.05;0.77;;;7.00;80.70;;;;;;5034366;28;20384;-76
2022/11/22 00:36:05;;;;;;;2.40;0.80;;;7.00;80.90;;;;;;5034743;28;20029;-76
2022/11/22 00:38:31;;;;;;;1.83;0.95;;;7.00;81.20;;;;;;5034592;28;20021;-73
2022/11/22 00:40:56;;;;;;;3.30;0.88;;;7.00;81.40;;;;;;5034547;28;20024;-74
2022/11/22 00:43:23;;;;;;;4.00;1.23;;;7.00;81.70;;;;;;5034361;28;20074;-74
2022/11/22 00:45:50;;;;;;;2.38;0.95;;;7.10;81.90;;;;;;5034251;28;20025;-74
2022/11/22 00:48:15;;;;;;;2.53;0.82;;;7.10;81.90;;;;;;5037676;28;20054;-75
2022/11/22 00:50:41;;;;;;;2.10;0.75;;;7.10;82.10;;;;;;5038153;28;20363;-74
2022/11/22 00:53:06;;;;;;;2.47;1.13;;;7.10;82.10;;;;;;5038190;28;20584;-74
2022/11/22 00:55:32;;;;;;;4.22;1.20;;;7.10;82.10;;;;;;5037894;28;20032;-74
2022/11/22 00:57:58;;;;;;;3.40;1.13;;;7.10;81.90;;;;;;5037674;28;20033;-74
2022/11/22 01:00:23;;;;;;;3.83;1.13;;;7.10;81.60;;;;;;5037680;28;20420;-75
2022/11/22 01:02:49;;;;;;;1.20;0.70;;;7.10;81.60;;;;;;5037648;28;20119;-74
2022/11/22 01:05:16;;;;;;;2.38;0.80;;;7.10;81.70;;;;;;5037594;28;20048;-75
2022/11/22 01:07:43;;;;;;;2.35;1.13;;;7.10;81.90;;;;;;5037635;28;20059;-75
2022/11/22 01:10:09;;;;;;;2.08;1.02;;;7.10;81.90;;;;;;5037290;28;20045;-74
2022/11/22 01:12:34;;;;;;;1.85;0.70;;;7.10;82.00;;;;;;5054099;28;20066;-74
2022/11/22 01:15:00;;;;;;;1.48;0.93;;;7.10;82.00;;;;;;5037126;28;20512;-75
2022/11/22 01:17:26;;;;;;;3.28;1.23;;;7.10;82.10;;;;;;5037349;28;20128;-75
2022/11/22 01:19:52;;;;;;;1.95;0.95;;;7.10;82.20;;;;;;5037547;28;20021;-74
2022/11/22 01:22:17;;;;;;;1.13;0.65;;;7.10;82.40;;;;;;5037468;28;20116;-75
2022/11/22 01:24:43;;;;;;;3.83;0.90;;;7.20;82.30;;;;;;5037336;28;20155;-75
2022/11/22 01:27:09;;;;;;;2.13;0.90;;;7.20;82.40;;;;;;5037207;28;20393;-76
2022/11/22 01:29:34;;;;;;;2.83;1.15;;;7.20;82.90;;;;;;5020522;28;20067;-74
2022/11/22 01:32:00;;;;;;;3.45;1.38;;;7.20;83.00;;;;;;5036995;28;20056;-75
2022/11/22 01:34:25;;;;;;;2.35;0.90;;;7.20;83.60;;;;;;5037347;28;20052;-75
2022/11/22 01:36:51;;;;;;;3.75;1.02;;;7.10;84.00;;;;;;5037290;28;20037;-75
2022/11/22 01:39:17;;;;;;;4.28;1.42;;;7.00;84.80;;;;;;5036937;28;20018;-75
2022/11/22 01:41:42;;;;;;;5.57;1.35;;;7.00;85.20;;;;;;5036950;28;20396;-75
2022/11/22 01:44:21;;;;;;;4.45;1.77;;;6.70;84.00;;;;;;5036753;28;20017;-75
2022/11/22 01:46:50;;;;;;;2.92;1.20;;;6.60;85.30;;;;;;5037049;28;20067;-75
2022/11/22 01:49:23;;;;;;;2.28;1.33;;;6.60;86.10;;;;;;5037050;28;20032;-75
2022/11/22 01:51:52;;;;;;;3.15;1.05;;;6.50;85.60;;;;;;5036671;28;20041;-75
2022/11/22 01:54:23;;;;;;;3.88;1.30;;;6.50;85.60;;;;;;5036637;28;20481;-75
2022/11/22 01:56:55;;;;;;;3.15;1.45;;;6.50;85.60;;;;;;5036537;28;20037;-75
2022/11/22 01:59:25;;;;;;;3.63;1.13;;;6.50;85.20;;;;;;5035967;28;20023;-75
2022/11/22 02:01:51;;;;;;;2.83;0.95;;;6.40;84.40;;;;;;5036822;28;20493;-75
2022/11/22 02:04:19;;;;;;;4.40;0.88;;;6.40;84.30;;;;;;5035657;28;20029;-76
2022/11/22 02:07:00;;;;;;;3.38;1.10;;;6.50;83.70;;;;;;5036409;28;20032;-75
2022/11/22 02:09:27;;;;;;;3.50;1.15;;;6.50;83.00;;;;;;5036086;28;20059;-75
2022/11/22 02:11:57;;;;;;;4.68;1.45;;;6.50;82.70;;;;;;5036180;28;20441;-75
2022/11/22 02:14:27;;;;;;;2.63;1.45;;;6.50;82.70;;;;;;5036187;28;20043;-75
2022/11/22 02:16:53;;;;;;;3.58;1.10;;;6.60;82.50;;;;;;5036182;28;20037;-75
2022/11/22 02:19:31;;;;;;;4.88;1.27;;;6.60;82.90;;;;;;5036360;28;20280;-75
2022/11/22 02:22:05;;;;;;;8.00;1.65;;;6.60;83.00;;;;;;5036052;28;20025;-75
2022/11/22 02:24:39;;;;;;;3.83;1.30;;;6.70;83.10;;;;;;5036402;28;20112;-75
2022/11/22 02:27:05;;;;;;;4.40;1.27;;;6.70;82.50;;;;;;5035923;28;20053;-75
2022/11/22 02:29:31;;;;;;;8.68;1.77;;;6.70;82.00;;;;;;5035951;28;20465;-74
2022/11/22 02:31:57;;;;;;;9.07;1.63;;;6.70;81.20;;;;;;5036242;28;20490;-74
2022/11/22 02:34:23;;;;;;;3.80;1.35;;;6.60;80.30;;;;;;5036110;28;20021;-74
2022/11/22 02:36:51;;;;;;;7.22;1.55;;;6.60;81.60;;;;;;5036286;28;20432;-74
2022/11/22 02:39:21;;;;;;;8.38;1.38;;;6.60;80.00;;;;;;5035796;28;20021;-74
2022/11/22 02:41:48;;;;;;;8.07;1.10;;;6.70;80.10;;;;;;5035744;28;20501;-75
2022/11/22 02:44:15;;;;;;;10.20;1.50;;;6.70;80.20;;;;;;5036014;28;20166;-74
2022/11/22 02:46:52;;;;;;;7.70;1.65;;;6.70;79.50;;;;;;5036086;28;20477;-74
2022/11/22 02:49:20;;;;;;;11.00;1.52;;;6.70;79.10;;;;;;5035877;28;20068;-74
2022/11/22 02:51:46;;;;;;;8.60;1.90;;;6.80;77.90;;;;;;5035903;28;20025;-75
2022/11/22 02:54:12;;;;;;;4.80;1.35;;;6.70;78.40;;;;;;5035909;28;20021;-75
2022/11/22 02:56:38;;;;;;;6.53;1.42;;;6.80;78.80;;;;;;5036250;28;20135;-75
2022/11/22 02:59:04;;;;;;;9.95;1.98;;;6.80;78.90;;;;;;5036137;28;20070;-75
2022/11/22 03:11:35;;;;;;;10.48;1.75;;;6.70;79.20;;;;;;4209521;28;20116;-75
2022/11/22 03:14:01;;;;;;;7.63;1.67;;;6.70;79.10;;;;;;5053201;28;20112;-74
2022/11/22 03:16:26;;;;;;;7.40;1.77;;;6.70;78.80;;;;;;5052948;28;20029;-75
2022/11/22 03:18:52;;;;;;;7.70;1.40;;;6.70;78.80;;;;;;5052954;28;20382;-75
2022/11/22 03:21:17;;;;;;;5.82;1.55;;;6.70;78.90;;;;;;5053108;28;20025;-75
2022/11/22 03:23:43;;;;;;;7.07;1.30;;;6.70;78.70;;;;;;5052775;28;20377;-75
2022/11/22 03:26:10;;;;;;;3.67;1.17;;;6.70;78.70;;;;;;5052905;28;20100;-75
2022/11/22 03:28:36;;;;;;;3.08;1.48;;;6.70;79.20;;;;;;5052897;28;20025;-76
2022/11/22 03:31:07;;;;;;;6.38;1.38;;;6.80;79.90;;;;;;5034895;28;20079;-75
2022/11/22 03:33:36;;;;;;;5.82;1.48;;;6.80;80.30;;;;;;5053022;28;20021;-76
2022/11/22 03:36:02;;;;;;;4.30;1.80;;;6.80;80.80;;;;;;5052783;28;20029;-76
2022/11/22 03:38:28;;;;;;;1.48;0.88;;;6.80;81.30;;;;;;5052735;28;20045;-75
2022/11/22 03:40:53;;;;;;;5.78;1.45;;;6.70;81.90;;;;;;5052763;28;20028;-76
2022/11/22 03:43:20;;;;;;;6.88;1.10;;;6.70;82.10;;;;;;5035207;28;20032;-77
2022/11/22 03:45:46;;;;;;;2.90;1.13;;;6.70;82.60;;;;;;5052850;28;20025;-75
2022/11/22 03:48:13;;;;;;;4.45;1.38;;;6.70;83.20;;;;;;5035045;28;20028;-78
2022/11/22 03:50:39;;;;;;;1.80;0.75;;;6.60;83.20;;;;;;5052524;28;20021;-75
2022/11/22 03:53:04;;;;;;;3.97;1.13;;;6.60;83.60;;;;;;5035063;28;20021;-75
2022/11/22 03:55:30;;;;;;;5.85;1.27;;;6.60;83.80;;;;;;5052556;28;20087;-75
2022/11/22 03:57:55;;;;;;;3.95;1.23;;;6.60;84.00;;;;;;5052586;28;20100;-75
2022/11/22 04:00:22;;;;;;;9.05;2.58;;;6.60;84.30;;;;;;5051525;28;20067;-76
2022/11/22 04:02:48;;;;;;;6.60;2.80;;;6.60;84.30;;;;;;5052778;28;20021;-75
2022/11/22 04:05:14;;;;;;;17.05;8.32;;;6.50;84.30;;;;;;5051480;28;20178;-76
2022/11/22 04:07:39;;;;;;;20.65;10.88;;;6.50;84.40;;;;;;5052662;28;20387;-75
2022/11/22 04:10:06;;;;;;;19.88;7.25;;;6.50;84.80;;;;;;5052776;28;20029;-76
2022/11/22 04:12:32;;;;;;;11.80;2.75;;;6.40;85.00;;;;;;5052562;28;20160;-76
2022/11/22 04:15:06;;;;;;;11.25;2.40;;;6.30;83.00;;;;;;5051274;28;20112;-77
2022/11/22 04:17:43;;;;;;;6.53;1.58;;;6.30;82.00;;;;;;5052577;28;20029;-86
2022/11/22 04:23:17;;;;;;;4.47;1.63;;;6.40;81.70;;;;;;5056051;28;20047;-75
2022/11/22 04:25:45;;;;;;;6.50;1.70;;;6.40;81.60;;;;;;5056206;28;20021;-79
2022/11/22 04:28:12;;;;;;;7.97;1.20;;;6.40;81.70;;;;;;5056120;28;20025;-75
2022/11/22 04:33:23;;;;;;;9.18;1.52;;;6.30;82.10;;;;;;5056450;28;20044;-75
2022/11/22 04:35:49;;;;;;;6.55;1.25;;;6.30;82.50;;;;;;5056364;28;20397;-75
2022/11/22 04:38:16;;;;;;;4.85;1.00;;;6.20;82.20;;;;;;5038046;28;20028;-78
2022/11/22 04:40:41;;;;;;;6.22;1.50;;;6.30;82.50;;;;;;5055836;28;20028;-75
2022/11/22 04:45:59;;;;;;;5.75;1.40;;;6.30;83.00;;;;;;5056218;28;20090;-86
2022/11/22 04:48:24;;;;;;;9.48;1.40;;;6.30;83.00;;;;;;5055806;28;20032;-74
2022/11/22 04:53:34;;;;;;;8.68;1.88;;;6.40;82.80;;;;;;5055966;28;20040;-75
2022/11/22 04:55:59;;;;;;;4.03;1.20;;;6.40;82.70;;;;;;5055443;28;20041;-75
2022/11/22 04:58:25;;;;;;;4.47;1.30;;;6.40;82.40;;;;;;5055509;28;20395;-76
2022/11/22 05:00:51;;;;;;;4.00;1.40;;;6.40;81.80;;;;;;5055515;28;20385;-76
2022/11/22 05:03:16;;;;;;;4.57;1.15;;;6.50;81.90;;;;;;5055442;28;20087;-75
2022/11/22 05:05:43;;;;;;;4.60;1.50;;;6.50;81.90;;;;;;5055347;28;20025;-75
2022/11/22 05:08:10;;;;;;;5.28;1.80;;;6.50;82.00;;;;;;5055385;28;20033;-75
2022/11/22 05:13:42;;;;;;;10.25;1.90;;;6.50;81.80;;;;;;5055557;28;20513;-75
2022/11/22 05:16:10;;;;;;;5.28;1.33;;;6.50;82.30;;;;;;5054492;28;20052;-75
2022/11/22 05:18:36;;;;;;;9.93;2.00;;;6.50;82.50;;;;;;5055203;28;20108;-75
2022/11/22 05:21:11;;;;;;;5.00;1.83;;;6.50;82.80;;;;;;5055048;28;20060;-75
2022/11/22 05:23:54;;;;;;;3.45;1.45;;;6.50;82.60;;;;;;5055144;28;20082;-75
2022/11/22 05:26:22;;;;;;;5.40;1.77;;;6.50;82.70;;;;;;5053681;28;20432;-75
2022/11/22 05:28:48;;;;;;;5.82;1.80;;;6.50;82.70;;;;;;5054994;28;20385;-76
2022/11/22 05:31:16;;;;;;;4.45;1.67;;;6.50;82.80;;;;;;5055192;28;20029;-75
2022/11/22 05:33:44;;;;;;;10.40;2.17;;;6.40;82.00;;;;;;5061049;28;20021;-84
2022/11/22 05:36:10;;;;;;;6.07;2.10;;;6.40;82.10;;;;;;5066032;28;20041;-93
2022/11/22 05:38:37;;;;;;;7.53;1.95;;;6.40;82.30;;;;;;5059055;28;20029;-85
2022/11/22 05:41:04;;;;;;;6.07;2.10;;;6.40;82.50;;;;;;5057128;28;20032;-92
2022/11/22 05:43:30;;;;;;;5.35;1.55;;;6.40;82.90;;;;;;5056379;28;20055;-87
2022/11/22 05:46:04;;;;;;;5.13;1.15;;;6.40;83.20;;;;;;5057220;28;20108;-84
2022/11/22 05:48:29;;;;;;;9.50;2.50;;;6.30;83.90;;;;;;5056876;28;20041;-88
2022/11/22 05:50:55;;;;;;;7.97;2.60;;;6.30;84.30;;;;;;5057600;28;20040;-88
2022/11/22 05:53:20;;;;;;;9.10;2.90;;;6.20;84.60;;;;;;5056133;28;20028;-84
2022/11/22 05:55:46;;;;;;;9.13;2.75;;;6.20;84.80;;;;;;5055257;28;20037;-75
2022/11/22 05:58:12;;;;;;;10.40;2.72;;;6.20;85.00;;;;;;5054223;28;20017;-75
2022/11/22 06:00:37;;;;;;;7.38;2.22;;;6.10;85.00;;;;;;5051328;22;20065;-75
2022/11/22 06:03:03;;;;;;;8.07;2.10;;;6.20;84.90;;;;;;5015405;28;20026;-75
2022/11/22 06:05:29;;;;;;;8.48;2.72;;;6.20;84.80;;;;;;5014347;28;20026;-75
2022/11/22 06:08:01;;;;;;;8.70;3.28;;;6.20;85.00;;;;;;5013412;28;20117;-74
2022/11/22 06:10:27;;;;;;;8.35;2.80;;;6.20;85.00;;;;;;5013493;28;20030;-77
2022/11/22 06:12:54;;;;;;;7.68;2.50;;;6.20;85.00;;;;;;5013282;28;20022;-74
2022/11/22 06:15:20;;;;;;;9.25;2.47;;;6.20;85.00;;;;;;5013254;28;20471;-76
2022/11/22 06:17:45;;;;;;;5.68;2.10;;;6.20;84.90;;;;;;5012854;28;20502;-74
2022/11/22 06:20:11;;;;;;;6.00;2.17;;;6.20;84.80;;;;;;5012947;28;20077;-76
2022/11/22 06:22:36;;;;;;;5.72;2.75;;;6.20;84.80;;;;;;5012806;28;20327;-75
2022/11/22 06:25:02;;;;;;;8.60;2.58;;;6.20;84.60;;;;;;5014198;28;20025;-80
2022/11/22 06:27:31;;;;;;;10.85;2.63;;;6.10;84.70;;;;;;5014764;28;20026;-84
2022/11/22 06:29:57;;;;;;;8.02;2.80;;;6.20;84.80;;;;;;5013093;28;20022;-77
2022/11/22 06:32:22;;;;;;;7.50;2.50;;;6.20;84.80;;;;;;5012738;28;20424;-76
2022/11/22 06:34:48;;;;;;;7.43;1.88;;;6.20;84.70;;;;;;5012612;28;20501;-75
2022/11/22 06:37:15;;;;;;;6.40;2.25;;;6.20;84.60;;;;;;5012920;28;20061;-79
2022/11/22 06:39:40;;;;;;;9.35;2.10;;;6.10;84.10;;;;;;5013905;28;20026;-75
2022/11/22 06:42:09;;;;;;;8.25;2.20;;;6.10;83.70;;;;;;5012955;28;20033;-77
2022/11/22 06:44:35;;;;;;;10.00;2.40;;;6.10;83.80;;;;;;5012533;28;20530;-81
2022/11/22 06:47:00;;;;;;;6.95;1.70;;;6.10;83.50;;;;;;5013141;28;20128;-81
2022/11/22 06:49:26;;;;;;;7.85;2.20;;;6.10;83.10;;;;;;5013369;28;20022;-75
2022/11/22 06:51:52;;;;;;;13.50;2.55;;;6.10;83.00;;;;;;5012743;28;20030;-74
2022/11/22 06:54:17;;;;;;;6.18;2.40;;;6.10;82.90;;;;;;5012685;28;20026;-75
2022/11/22 06:56:43;;;;;;;11.90;3.88;;;6.20;82.90;;;;;;5014082;28;20041;-75
2022/11/22 06:59:09;;;;;;;10.35;3.53;;;6.20;83.60;;;;;;5012755;28;20028;-80
2022/11/22 07:01:36;;;;;;;12.57;3.28;;;6.30;82.80;;;;;;5013637;28;20056;-76
2022/11/22 07:04:04;;;;;;;15.82;2.80;;;6.30;82.30;;;;;;5028840;28;20118;-77
2022/11/22 07:06:36;;;;;;;13.43;2.92;;;6.30;82.30;;;;;;5011909;28;20045;-76
2022/11/22 07:09:08;;;;;;;9.27;2.30;;;6.30;81.70;;;;;;5012298;28;20124;-78
2022/11/22 07:11:35;;;;;;;8.75;2.40;;;6.40;81.00;;;;;;5013745;28;20022;-77
2022/11/22 07:14:02;;;;;;;13.43;2.08;;;6.40;79.60;;;;;;4995481;28;20034;-77
2022/11/22 07:16:29;;;;;;;7.07;1.75;;;6.30;78.40;;;;;;5011654;28;20505;-75
2022/11/22 07:18:57;;;;;;;11.18;2.42;;;6.40;77.40;;;;;;5011711;28;20036;-76
2022/11/22 07:21:24;;;;;;;10.38;2.17;;;6.30;77.20;;;;;;5012090;28;20026;-77
2022/11/22 07:23:53;;;;;;;11.27;1.98;;;6.20;77.60;;;;;;5012772;28;20021;-75
2022/11/22 07:26:21;;;;;;;12.23;2.00;;;6.20;76.80;;;;;;5029755;28;20030;-76
2022/11/22 07:28:47;;;;;;;9.18;2.13;;;6.20;76.50;;;;;;4996247;28;20479;-75
2022/11/22 07:31:14;;;;;;;15.23;2.50;;;6.20;76.40;;;;;;5013533;28;20030;-76
2022/11/22 07:33:43;;;;;;;10.63;4.00;;;6.20;76.60;;;;;;5012291;28;20049;-75
2022/11/22 07:36:15;;;;;;;9.00;2.45;;;6.20;77.00;;;;;;5011975;28;20034;-75
2022/11/22 07:38:40;;;;;;;12.20;2.40;;;6.30;77.30;;;;;;5012037;28;20097;-75
2022/11/22 07:41:08;;;;;;;11.43;1.83;;;6.30;76.40;;;;;;5013188;28;20105;-74
2022/11/22 07:43:35;;;;;;;14.65;1.85;;;6.30;76.90;;;;;;5013352;28;20113;-76
2022/11/22 07:46:07;;;;;;;9.48;2.38;;;6.30;77.30;;;;;;4995825;28;20030;-75
2022/11/22 07:48:33;;;;;;;6.22;1.77;;;6.30;76.20;;;;;;5013822;28;20085;-74
2022/11/22 07:51:07;;;;;;;8.07;1.92;;;6.30;75.80;;;;;;5011603;28;20026;-75
2022/11/22 07:53:34;;;;;;;9.88;2.15;;;6.20;75.00;;;;;;5011644;28;20029;-74
2022/11/22 07:56:04;;;;;;;9.65;1.88;;;6.30;74.90;;;;;;5011658;28;20180;-74
2022/11/22 07:58:31;;;;;;;7.05;2.28;;;6.30;74.40;;;;;;5015772;28;20100;-79
2022/11/22 08:00:57;;;;;;;14.90;2.15;;;6.30;74.00;;;;;;5015756;28;20074;-75
2022/11/22 08:03:23;;;;;;;10.65;1.92;;;6.30;74.30;;;;;;4999214;28;20026;-76
2022/11/22 08:05:48;;;;;;;10.50;2.05;;;6.30;74.40;;;;;;5000117;28;20061;-76
2022/11/22 08:08:14;;;;;;;24.02;3.40;;;6.30;74.50;;;;;;5015857;28;20352;-77
2022/11/22 08:10:42;;;;;;;9.55;1.77;;;6.60;87.60;;;;;;5015463;28;20018;-79
2022/11/22 08:13:09;;;;;;;8.45;1.73;;;6.80;81.40;;;;;;5015605;28;20026;-77
2022/11/22 08:15:36;;;;;;;7.25;1.42;;;7.00;78.20;;;;;;4999273;28;20044;-77
2022/11/22 08:18:05;;;;;;;6.43;1.40;;;7.20;75.70;;;;;;4998803;28;20546;-78
2022/11/22 08:20:32;;;;;;;7.28;1.52;;;7.50;74.60;;;;;;4999511;28;20052;-74
2022/11/22 08:22:57;;;;;;;9.43;2.22;;;7.60;70.20;;;;;;4999082;28;20384;-77
2022/11/22 08:25:23;;;;;;;5.55;1.70;;;7.70;70.30;;;;;;5014487;28;20029;-77
2022/11/22 08:27:50;;;;;;;8.00;1.50;;;7.70;67.60;;;;;;5014643;28;20033;-80
2022/11/22 08:30:15;;;;;;;10.18;2.05;;;7.70;67.70;;;;;;5016752;28;20049;-76
2022/11/22 08:32:44;;;;;;;11.23;2.13;;;7.60;66.50;;;;;;5015414;28;20030;-76
2022/11/22 08:35:11;;;;;;;8.63;1.65;;;7.40;66.90;;;;;;5016367;28;20120;-88
2022/11/22 08:38:04;;;;;;;11.30;1.77;;;7.10;68.00;;;;;;5002509;28;20040;-85
2022/11/22 08:40:30;;;;;;;11.13;2.35;;;6.90;68.80;;;;;;5016538;28;20064;-79
2022/11/22 08:42:56;;;;;;;8.90;1.48;;;6.70;69.90;;;;;;4998816;28;20470;-74
2022/11/22 08:45:22;;;;;;;9.85;2.63;;;6.60;69.50;;;;;;5014864;28;20037;-74
2022/11/22 08:47:48;;;;;;;8.23;1.75;;;6.70;70.30;;;;;;5015246;28;20119;-73
2022/11/22 08:50:14;;;;;;;4.60;1.33;;;6.50;70.10;;;;;;5015294;28;20022;-73
2022/11/22 08:52:39;;;;;;;8.18;2.13;;;6.50;70.40;;;;;;5015324;28;20026;-80
2022/11/22 08:55:05;;;;;;;8.15;1.90;;;6.50;70.40;;;;;;5015720;28;20089;-78
2022/11/22 08:57:31;;;;;;;6.22;1.35;;;6.50;70.40;;;;;;5016143;28;20030;-75
2022/11/22 08:59:57;;;;;;;6.90;1.95;;;6.50;70.10;;;;;;5015192;28;20032;-73
2022/11/22 09:02:22;;;;;;;10.70;1.95;;;6.50;69.50;;;;;;5015320;28;20124;-73
2022/11/22 09:04:51;;;;;;;10.10;1.55;;;6.50;69.50;;;;;;5014413;28;20417;-73
2022/11/22 09:07:17;;;;;;;13.43;2.28;;;6.40;69.10;;;;;;5015106;28;20029;-73
2022/11/22 09:09:43;;;;;;;8.68;2.53;;;6.40;69.00;;;;;;5014551;28;20045;-74
2022/11/22 09:12:08;;;;;;;8.13;1.98;;;6.30;70.40;;;;;;5014416;28;20029;-73
2022/11/22 09:14:34;;;;;;;7.95;1.70;;;6.30;69.60;;;;;;5014656;28;20066;-72
2022/11/22 09:16:59;;;;;;;5.13;1.75;;;6.30;69.30;;;;;;5014009;28;20045;-81
2022/11/22 09:19:25;;;;;;;6.53;1.92;;;6.40;68.90;;;;;;5014531;28;20014;-84
2022/11/22 09:21:51;;;;;;;8.32;1.58;;;6.30;68.20;;;;;;5014970;28;20044;-73
2022/11/22 09:24:17;;;;;;;9.52;1.80;;;6.40;68.10;;;;;;5014539;28;20109;-77
2022/11/22 09:26:42;;;;;;;9.65;1.95;;;6.50;67.70;;;;;;5014297;28;20100;-74
2022/11/22 09:29:08;;;;;;;8.90;1.83;;;6.50;67.70;;;;;;5020942;28;20120;-76
2022/11/22 09:31:33;;;;;;;9.02;2.15;;;6.60;68.00;;;;;;5034011;28;20030;-75
2022/11/22 09:33:59;;;;;;;9.05;1.95;;;6.60;67.20;;;;;;5033197;28;20022;-73
2022/11/22 09:36:25;;;;;;;11.15;1.95;;;6.50;65.80;;;;;;5033554;28;20043;-77
2022/11/22 09:38:51;;;;;;;10.68;2.08;;;6.50;66.40;;;;;;5033579;28;20150;-74
2022/11/22 09:41:36;;;;;;;9.88;1.65;;;6.50;65.90;;;;;;5033287;28;20071;-78
2022/11/22 09:44:26;;;;;;;8.18;1.70;;;6.50;65.60;;;;;;5033416;28;20057;-81
2022/11/22 09:47:00;;;;;;;12.23;1.80;;;6.50;65.40;;;;;;5034096;28;20030;-82
2022/11/22 09:49:26;;;;;;;5.47;1.42;;;6.40;66.70;;;;;;5033306;28;20037;-74
2022/11/22 09:52:15;;;;;;;8.52;1.83;;;6.40;66.30;;;;;;5033176;28;20052;-75
2022/11/22 09:54:55;;;;;;;9.95;2.38;;;6.50;66.70;;;;;;5033212;28;20018;-74
2022/11/22 09:57:27;;;;;;;9.23;1.77;;;6.40;67.70;;;;;;5033409;28;20052;-79
2022/11/22 10:00:26;;;;;;;14.32;1.88;;;6.40;66.70;;;;;;5032773;28;20032;-74
2022/11/22 10:02:59;;;;;;;8.30;1.70;;;6.40;66.80;;;;;;5022287;28;20049;-78
2022/11/22 10:05:32;;;;;;;4.85;1.60;;;6.50;66.40;;;;;;5032740;28;20028;-73
2022/11/22 10:08:33;;;;;;;14.93;2.40;;;6.40;65.60;;;;;;5033238;28;20116;-75
2022/11/22 10:11:02;;;;;;;8.30;1.40;;;6.50;66.50;;;;;;5011138;28;20036;-84
2022/11/22 10:13:34;;;;;;;9.80;1.73;;;6.60;65.20;;;;;;5033096;28;20111;-73
2022/11/22 10:16:19;;;;;;;7.35;1.25;;;6.60;64.80;;;;;;5033263;28;20083;-73
2022/11/22 10:19:15;;;;;;;6.63;1.48;;;6.60;62.90;;;;;;5032625;28;20057;-75
2022/11/22 10:21:41;;;;;;;;;;;6.60;62.80;;;;;;5020982;28;20048;-74
2022/11/22 10:24:14;;;;;;;11.35;1.63;;;6.70;63.80;;;;;;5033498;28;20250;-78
2022/11/22 10:26:41;;;;;;;6.78;1.48;;;6.70;63.60;;;;;;5032790;28;20026;-74
2022/11/22 10:29:31;;;;;;;6.45;1.58;;;6.70;62.30;;;;;;5032977;28;20021;-72
2022/11/22 10:32:19;;;;;;;12.30;1.80;;;6.70;62.20;;;;;;5032715;28;20026;-73
2022/11/22 10:35:19;;;;;;;7.57;1.55;;;6.70;62.30;;;;;;5029194;28;20031;-81
2022/11/22 10:38:24;;;;;;;12.10;2.85;;;6.70;61.10;;;;;;5033901;28;20032;-74
2022/11/22 10:40:54;;;;;;;9.32;1.48;;;6.70;60.60;;;;;;5034219;28;20030;-74
2022/11/22 10:43:34;;;;;;;8.52;1.85;;;6.80;61.20;;;;;;5033013;28;20017;-79
2022/11/22 10:46:09;;;;;;;6.88;1.58;;;6.70;62.70;;;;;;5033384;28;20584;-76
2022/11/22 10:48:48;;;;;;;10.00;2.00;;;6.70;62.30;;;;;;5032626;28;20371;-82
2022/11/22 10:51:32;;;;;;;11.73;2.15;;;6.60;63.80;;;;;;5032778;28;20033;-80
2022/11/22 10:54:22;;;;;;;11.23;1.88;;;6.60;63.60;;;;;;5032342;28;20029;-71
2022/11/22 10:56:57;;;;;;;9.70;1.77;;;6.60;63.00;;;;;;5032469;28;20034;-76
2022/11/22 10:59:28;;;;;;;5.97;1.90;;;6.60;63.10;;;;;;5031981;28;20080;-73
2022/11/22 11:02:36;;;;;;;5.68;1.88;;;6.70;63.60;;;;;;5031829;28;20063;-75
2022/11/22 11:05:07;;;;;;;6.00;1.67;;;6.80;63.90;;;;;;5032269;28;20120;-77
2022/11/22 11:07:34;;;;;;;11.70;1.77;;;6.90;63.50;;;;;;5032897;28;20100;-72
2022/11/22 11:10:04;;;;;;;10.27;2.33;;;7.00;63.00;;;;;;5032143;28;20099;-74
2022/11/22 11:12:41;;;;;;;3.80;1.42;;;7.10;63.00;;;;;;5031724;28;20017;-77
2022/11/22 11:15:19;;;;;;;10.80;1.85;;;7.10;62.70;;;;;;5032344;28;20056;-75
2022/11/22 11:17:49;;;;;;;9.35;1.55;;;7.20;61.70;;;;;;5032040;28;20359;-82
2022/11/22 11:20:29;;;;;;;9.25;1.55;;;7.10;62.10;;;;;;5032823;28;20017;-73
2022/11/22 11:22:55;;;;;;;3.70;1.60;;;7.00;62.30;;;;;;5031537;28;20021;-75
2022/11/22 11:25:32;;;;;;;7.15;1.20;;;7.00;63.70;;;;;;5032113;28;20022;-76
2022/11/22 11:28:21;;;;;;;6.05;1.30;;;6.90;62.90;;;;;;5031984;28;20116;-73
2022/11/22 11:31:00;;;;;;;6.88;1.40;;;7.00;63.10;;;;;;5030958;28;20036;-73
2022/11/22 11:33:32;;;;;;;6.93;1.40;;;7.00;62.00;;;;;;5031518;28;20032;-73
2022/11/22 11:36:12;;;;;;;4.70;1.42;;;7.00;61.70;;;;;;5033216;28;20490;-74
2022/11/22 11:38:43;;;;;;;6.22;1.75;;;7.00;61.00;;;;;;5031586;28;20549;-74
2022/11/22 11:41:32;;;;;;;5.20;1.38;;;7.10;62.10;;;;;;5031440;28;20030;-74
2022/11/22 11:44:03;;;;;;;9.57;1.33;;;7.10;60.90;;;;;;5030995;28;20104;-74
2022/11/22 11:46:43;;;;;;;8.48;1.63;;;7.10;61.50;;;;;;5031797;28;20026;-76
2022/11/22 11:49:17;;;;;;;8.00;1.48;;;7.10;61.80;;;;;;5032679;28;20029;-77
2022/11/22 11:51:54;;;;;;;2.67;1.10;;;7.00;61.80;;;;;;5048283;28;20025;-76
2022/11/22 11:54:41;;;;;;;6.45;1.08;;;7.00;62.00;;;;;;5031388;28;20479;-76
2022/11/22 11:57:14;;;;;;;6.40;1.08;;;7.00;62.40;;;;;;5030879;28;20422;-73
2022/11/22 11:59:39;;;;;;;9.40;1.42;;;7.00;62.70;;;;;;5030453;28;20366;-73
2022/11/22 12:02:25;;;;;;;6.28;1.30;;;7.00;62.40;;;;;;5030376;28;20094;-75
2022/11/22 12:05:08;;;;;;;8.18;1.00;;;6.90;63.30;;;;;;5030746;28;20025;-74
2022/11/22 12:07:34;;;;;;;6.53;1.30;;;7.00;63.00;;;;;;5030692;28;20030;-74
2022/11/22 12:10:01;;;;;;;5.57;1.15;;;6.90;62.60;;;;;;5031141;28;20024;-74
2022/11/22 12:12:45;;;;;;;6.28;1.35;;;6.90;63.60;;;;;;5030607;28;20061;-74
2022/11/22 12:15:14;;;;;;;10.23;1.05;;;6.90;62.20;;;;;;5030834;28;20025;-79
2022/11/22 12:17:51;;;;;;;4.07;0.93;;;6.90;62.90;;;;;;5030782;28;20034;-74
2022/11/22 12:20:24;;;;;;;8.50;1.27;;;7.00;63.40;;;;;;5031065;28;20032;-74
2022/11/22 12:23:04;;;;;;;4.38;0.93;;;7.00;63.20;;;;;;5031650;28;20021;-77
2022/11/22 12:25:34;;;;;;;3.65;0.65;;;7.10;63.40;;;;;;5033816;28;20049;-77
2022/11/22 12:28:16;;;;;;;7.28;1.17;;;7.30;63.50;;;;;;5030725;28;20029;-74
2022/11/22 12:30:45;;;;;;;4.80;0.73;;;7.50;61.80;;;;;;5031636;28;20104;-73
2022/11/22 12:33:26;;;;;;;6.30;1.33;;;7.50;61.40;;;;;;5031233;28;20022;-77
2022/11/22 12:35:53;;;;;;;4.30;0.80;;;7.40;61.30;;;;;;5031235;28;20029;-76
2022/11/22 12:38:30;;;;;;;11.88;1.67;;;7.30;62.70;;;;;;5031579;28;20037;-73
2022/11/22 12:40:59;;;;;;;4.28;0.73;;;7.50;62.10;;;;;;5031103;28;20025;-73
2022/11/22 12:43:47;;;;;;;3.85;0.80;;;7.60;61.30;;;;;;5034121;28;20171;-72
2022/11/22 12:46:19;;;;;;;5.45;1.02;;;7.80;60.80;;;;;;5035739;28;20091;-74
2022/11/22 12:48:58;;;;;;;4.80;1.02;;;7.80;60.90;;;;;;5036123;28;20025;-73
2022/11/22 12:51:33;;;;;;;4.38;0.60;;;7.90;60.70;;;;;;5034280;28;20033;-73
2022/11/22 12:54:04;;;;;;;2.93;0.40;;;8.00;59.70;;;;;;5034312;28;20405;-75
2022/11/22 12:56:52;;;;;;;2.72;0.70;;;8.20;58.50;;;;;;5035755;28;20056;-86
2022/11/22 12:59:45;;;;;;;4.72;0.60;;;8.50;57.90;;;;;;5036612;28;20087;-74
2022/11/22 13:02:29;;;;;;;4.60;0.85;;;8.50;58.00;;;;;;5035719;28;20123;-73
2022/11/22 13:05:07;;;;;;;3.63;0.47;;;8.40;57.80;;;;;;5019708;28;20052;-76
2022/11/22 13:07:39;;;;;;;2.40;0.88;;;8.50;57.00;;;;;;5014498;28;20109;-75
2022/11/22 13:10:13;;;;;;;2.50;0.52;;;8.70;56.90;;;;;;5015014;28;20081;-76
2022/11/22 13:12:41;;;;;;;4.30;0.73;;;8.60;56.70;;;;;;5031358;28;20021;-83
2022/11/22 13:15:12;;;;;;;2.75;0.60;;;8.70;57.00;;;;;;5014688;28;20048;-74
2022/11/22 13:17:39;;;;;;;2.33;0.50;;;8.70;56.70;;;;;;5017846;28;20060;-83
2022/11/22 13:20:13;;;;;;;3.58;0.70;;;8.60;56.30;;;;;;5018592;28;20022;-85
2022/11/22 13:23:14;;;;;;;5.43;0.85;;;8.30;57.50;;;;;;5018285;28;20113;-84
2022/11/22 13:26:07;;;;;;;4.47;1.40;;;8.20;58.10;;;;;;4948615;28;20164;-83
2022/11/22 13:28:37;;;;;;;5.90;1.00;;;8.10;58.70;;;;;;5017111;28;20025;-82
2022/11/22 13:31:12;;;;;;;3.78;1.02;;;8.10;58.80;;;;;;5017319;28;20112;-83
2022/11/22 13:33:52;;;;;;;1.08;0.52;;;8.20;58.70;;;;;;5017157;28;20025;-82
2022/11/22 13:36:27;;;;;;;3.90;0.65;;;8.40;58.30;;;;;;5017305;28;20379;-82